createdAt,value
2023-11-30T00:00:36.961Z,0.50
2023-11-30T00:03:04.306Z,0.50
2023-11-30T00:05:30.996Z,0.50
2023-11-30T00:07:57.616Z,0.50
2023-11-30T00:10:24.337Z,0.50
2023-11-30T00:12:50.934Z,0.50
2023-11-30T00:15:17.520Z,0.40
2023-11-30T00:17:44.241Z,0.40
2023-11-30T00:20:11.180Z,0.40
2023-11-30T00:22:37.835Z,0.40
2023-11-30T00:25:04.897Z,0.40
2023-11-30T00:27:31.502Z,0.30
2023-11-30T00:29:58.164Z,0.30
2023-11-30T00:32:24.800Z,0.30
2023-11-30T00:34:51.400Z,0.30
2023-11-30T00:37:17.992Z,0.30
2023-11-30T00:39:44.622Z,0.20
2023-11-30T00:42:11.283Z,0.10
2023-11-30T00:44:38.381Z,0.10
2023-11-30T00:47:05.111Z,0.10
2023-11-30T00:49:31.671Z,0.10
2023-11-30T00:51:58.288Z,0.10
2023-11-30T00:54:25.050Z,0.10
2023-11-30T00:56:51.851Z,0.10
2023-11-30T00:59:18.489Z,0.10
2023-11-30T01:01:45.226Z,0.10
2023-11-30T01:04:11.853Z,0.10
2023-11-30T01:06:38.499Z,0.00
2023-11-30T01:09:05.166Z,0.10
2023-11-30T01:11:31.876Z,0.00
2023-11-30T01:13:58.476Z,0.00
2023-11-30T01:16:25.163Z,-0.10
2023-11-30T01:18:51.880Z,-0.20
2023-11-30T01:21:18.580Z,-0.10
2023-11-30T01:23:45.238Z,-0.10
2023-11-30T01:26:11.877Z,-0.10
2023-11-30T01:28:38.458Z,-0.10
2023-11-30T01:31:05.305Z,-0.10
2023-11-30T01:33:32.009Z,-0.10
2023-11-30T01:35:59.033Z,-0.10
2023-11-30T01:38:25.717Z,-0.10
2023-11-30T01:40:52.317Z,-0.10
2023-11-30T01:43:18.942Z,-0.10
2023-11-30T01:45:45.627Z,-0.20
2023-11-30T01:48:13.033Z,-0.20
2023-11-30T01:50:39.846Z,-0.20
2023-11-30T01:53:07.146Z,-0.20
2023-11-30T01:55:33.934Z,-0.20
2023-11-30T01:58:00.847Z,-0.20
2023-11-30T02:00:31.251Z,-0.20
2023-11-30T02:02:58.950Z,-0.20
2023-11-30T02:05:25.952Z,-0.20
2023-11-30T02:07:52.588Z,-0.30
2023-11-30T02:10:19.323Z,-0.30
2023-11-30T02:12:45.909Z,-0.30
2023-11-30T02:15:12.561Z,-0.30
2023-11-30T02:17:39.219Z,-0.40
2023-11-30T02:20:06.506Z,-0.30
2023-11-30T02:22:33.323Z,-0.40
2023-11-30T02:24:59.922Z,-0.30
2023-11-30T02:27:26.519Z,-0.40
2023-11-30T02:29:53.285Z,-0.40
2023-11-30T02:32:20.036Z,-0.40
2023-11-30T02:34:46.644Z,-0.40
2023-11-30T02:37:13.295Z,-0.40
2023-11-30T02:39:39.877Z,-0.40
2023-11-30T02:42:06.619Z,-0.40
2023-11-30T02:44:33.239Z,-0.40
2023-11-30T02:46:59.824Z,-0.40
2023-11-30T02:49:26.408Z,-0.40
2023-11-30T02:51:53.025Z,-0.40
2023-11-30T02:54:19.671Z,-0.40
2023-11-30T02:56:46.331Z,-0.40
2023-11-30T02:59:12.954Z,-0.40
2023-11-30T03:01:47.152Z,-0.40
2023-11-30T03:04:14.346Z,-0.40
2023-11-30T03:06:41.797Z,-0.40
2023-11-30T03:09:09.359Z,-0.40
2023-11-30T03:11:36.377Z,-0.40
2023-11-30T03:14:03.014Z,-0.40
2023-11-30T03:16:29.679Z,-0.40
2023-11-30T03:19:10.406Z,-0.50
2023-11-30T03:21:42.868Z,-0.50
2023-11-30T03:24:09.658Z,-0.50
2023-11-30T03:26:36.416Z,-0.40
2023-11-30T03:29:03.050Z,-0.40
2023-11-30T03:31:29.791Z,-0.40
2023-11-30T03:33:56.456Z,-0.40
2023-11-30T03:36:23.111Z,-0.50
2023-11-30T03:38:49.806Z,-0.50
2023-11-30T03:41:16.408Z,-0.60
2023-11-30T03:43:43.008Z,-0.60
2023-11-30T03:46:09.701Z,-0.70
2023-11-30T03:48:36.326Z,-0.60
2023-11-30T03:51:03.041Z,-0.50
2023-11-30T03:53:29.678Z,-0.40
2023-11-30T03:55:56.346Z,-0.50
2023-11-30T03:58:22.974Z,-0.50
2023-11-30T04:00:49.602Z,-0.50
2023-11-30T04:03:16.236Z,-0.40
2023-11-30T04:05:42.835Z,-0.50
2023-11-30T04:08:09.464Z,-0.40
2023-11-30T04:10:36.114Z,-0.40
2023-11-30T04:13:02.748Z,-0.30
2023-11-30T04:15:29.424Z,-0.30
2023-11-30T04:17:56.043Z,-0.30
2023-11-30T04:20:22.708Z,-0.30
2023-11-30T04:22:49.343Z,-0.30
2023-11-30T04:25:16.066Z,-0.20
2023-11-30T04:27:42.702Z,-0.30
2023-11-30T04:30:09.687Z,-0.20
2023-11-30T04:32:36.331Z,-0.20
2023-11-30T04:35:03.009Z,-0.20
2023-11-30T04:37:29.668Z,-0.20
2023-11-30T04:39:56.958Z,-0.20
2023-11-30T04:42:23.605Z,-0.20
2023-11-30T04:44:50.265Z,-0.20
2023-11-30T04:47:16.900Z,-0.10
2023-11-30T04:49:43.972Z,-0.10
2023-11-30T04:52:10.775Z,-0.10
2023-11-30T04:54:39.208Z,-0.10
2023-11-30T04:57:06.066Z,-0.10
2023-11-30T04:59:32.688Z,-0.10
2023-11-30T05:01:59.330Z,0.00
2023-11-30T05:04:26.018Z,0.00
2023-11-30T05:06:52.688Z,0.00
2023-11-30T05:09:19.374Z,0.00
2023-11-30T05:11:46.028Z,0.10
2023-11-30T05:14:12.655Z,0.10
2023-11-30T05:16:39.289Z,0.10
2023-11-30T05:19:05.936Z,0.10
2023-11-30T05:21:32.566Z,0.10
2023-11-30T05:23:59.235Z,0.10
2023-11-30T05:26:25.862Z,0.20
2023-11-30T05:28:52.512Z,0.20
2023-11-30T05:31:19.174Z,0.20
2023-11-30T05:33:45.806Z,0.20
2023-11-30T05:36:12.563Z,0.30
2023-11-30T05:38:39.148Z,0.30
2023-11-30T05:41:06.083Z,0.30
2023-11-30T05:43:34.053Z,0.30
2023-11-30T05:46:01.144Z,0.20
2023-11-30T05:48:27.785Z,0.20
2023-11-30T05:50:54.469Z,0.20
2023-11-30T05:53:21.086Z,0.20
2023-11-30T05:55:47.661Z,0.30
2023-11-30T05:58:14.247Z,0.40
2023-11-30T06:00:40.861Z,0.40
2023-11-30T06:03:09.034Z,0.40
2023-11-30T06:05:35.819Z,0.40
2023-11-30T06:08:02.437Z,0.40
2023-11-30T06:10:29.027Z,0.50
2023-11-30T06:12:55.736Z,0.50
2023-11-30T06:15:22.463Z,0.50
2023-11-30T06:17:49.095Z,0.40
2023-11-30T06:20:15.862Z,0.40
2023-11-30T06:22:42.467Z,0.50
2023-11-30T06:25:09.319Z,0.50
2023-11-30T06:27:36.035Z,0.40
2023-11-30T06:30:02.882Z,0.30
2023-11-30T06:32:29.570Z,0.40
2023-11-30T06:34:56.250Z,0.50
2023-11-30T06:37:22.924Z,0.60
2023-11-30T06:39:49.598Z,0.60
2023-11-30T06:42:16.257Z,0.60
2023-11-30T06:44:45.882Z,0.50
2023-11-30T06:47:12.531Z,0.60
2023-11-30T06:49:39.257Z,0.70
2023-11-30T06:52:06.210Z,0.60
2023-11-30T06:54:33.068Z,0.50
2023-11-30T06:56:59.729Z,0.50
2023-11-30T06:59:26.341Z,0.60
2023-11-30T07:01:53.101Z,0.60
2023-11-30T07:04:19.863Z,0.50
2023-11-30T07:06:46.602Z,0.50
2023-11-30T07:09:13.282Z,0.60
2023-11-30T07:11:40.346Z,0.60
2023-11-30T07:14:07.183Z,0.50
2023-11-30T07:16:33.912Z,0.50
2023-11-30T07:19:00.726Z,0.60
2023-11-30T07:21:27.441Z,0.60
2023-11-30T07:23:54.199Z,0.60
2023-11-30T07:26:20.860Z,0.60
2023-11-30T07:28:47.466Z,0.70
2023-11-30T07:31:22.212Z,0.80
2023-11-30T07:33:49.553Z,1.00
2023-11-30T07:36:16.345Z,1.00
2023-11-30T07:38:42.980Z,0.90
2023-11-30T07:41:09.630Z,0.80
2023-11-30T07:43:36.317Z,0.90
2023-11-30T07:46:03.194Z,0.90
2023-11-30T07:48:30.345Z,0.70
2023-11-30T07:50:56.995Z,0.70
2023-11-30T07:53:23.667Z,0.70
2023-11-30T07:55:50.471Z,0.80
2023-11-30T07:58:17.097Z,0.70
2023-11-30T08:00:43.752Z,0.70
2023-11-30T08:03:10.550Z,0.70
2023-11-30T08:05:37.191Z,0.70
2023-11-30T08:08:03.811Z,0.70
2023-11-30T08:10:30.409Z,0.70
2023-11-30T08:12:57.108Z,0.70
2023-11-30T08:15:23.738Z,0.80
2023-11-30T08:17:50.373Z,0.80
2023-11-30T08:20:17.070Z,0.90
2023-11-30T08:22:43.677Z,0.90
2023-11-30T08:25:10.271Z,0.90
2023-11-30T08:27:36.980Z,1.00
2023-11-30T08:30:04.029Z,1.00
2023-11-30T08:32:30.647Z,1.00
2023-11-30T08:34:57.266Z,1.10
2023-11-30T08:37:23.946Z,1.00
2023-11-30T08:39:50.590Z,1.10
2023-11-30T08:42:17.269Z,1.10
2023-11-30T08:44:43.913Z,1.10
2023-11-30T08:47:11.673Z,1.10
2023-11-30T08:49:38.277Z,1.10
2023-11-30T08:52:05.167Z,1.20
2023-11-30T08:54:31.892Z,1.20
2023-11-30T08:56:59.179Z,1.20
2023-11-30T08:59:25.929Z,1.20
2023-11-30T12:22:06.329Z,2.10
2023-11-30T12:24:33.092Z,2.10
2023-11-30T12:26:59.764Z,2.10
2023-11-30T12:29:26.602Z,2.10
2023-11-30T12:31:54.778Z,2.10
2023-11-30T12:34:23.008Z,2.20
2023-11-30T12:39:17.084Z,2.10
2023-11-30T12:41:43.873Z,2.10
2023-11-30T12:44:10.523Z,2.10
2023-11-30T12:46:37.248Z,2.10
2023-11-30T12:49:03.971Z,2.20
2023-11-30T12:51:30.709Z,2.30
2023-11-30T12:53:57.361Z,2.30
2023-11-30T12:56:23.928Z,2.20
2023-11-30T12:58:50.559Z,2.10
2023-11-30T13:01:17.224Z,2.10
2023-11-30T13:03:43.947Z,2.10
2023-11-30T13:06:11.178Z,2.10
2023-11-30T13:08:37.913Z,2.00
2023-11-30T13:11:04.578Z,2.00
2023-11-30T13:13:41.727Z,2.10
2023-11-30T13:16:09.698Z,2.10
2023-11-30T13:18:38.159Z,2.10
2023-11-30T13:21:05.084Z,2.10
2023-11-30T13:23:31.768Z,2.10
2023-11-30T13:26:01.594Z,2.00
2023-11-30T13:28:37.658Z,2.00
2023-11-30T13:31:08.247Z,2.00
2023-11-30T13:33:35.709Z,2.00
2023-11-30T13:36:02.353Z,2.00
2023-11-30T13:38:29.028Z,1.90
2023-11-30T13:40:55.678Z,1.90
2023-11-30T13:43:22.261Z,2.00
2023-11-30T13:45:49.040Z,2.00
2023-11-30T13:48:16.061Z,1.90
2023-11-30T13:50:52.516Z,1.90
2023-11-30T13:53:23.069Z,1.90
2023-11-30T13:55:49.751Z,1.90
2023-11-30T13:58:16.561Z,1.90
2023-11-30T14:00:43.300Z,1.90
2023-11-30T14:03:09.984Z,1.90
2023-11-30T14:05:36.603Z,1.90
2023-11-30T14:08:03.472Z,1.90
2023-11-30T14:10:30.084Z,1.90
2023-11-30T14:12:56.719Z,2.00
2023-11-30T14:15:23.423Z,2.00
2023-11-30T14:17:50.092Z,2.00
2023-11-30T14:20:16.691Z,1.90
2023-11-30T14:22:43.318Z,2.00
2023-11-30T14:25:09.924Z,1.90
2023-11-30T14:27:36.618Z,1.90
2023-11-30T14:30:03.552Z,1.90
2023-11-30T14:32:30.193Z,1.90
2023-11-30T14:34:56.800Z,1.90
2023-11-30T14:37:23.470Z,1.90
2023-11-30T14:39:50.126Z,1.90
2023-11-30T14:42:16.864Z,2.00
2023-11-30T14:44:43.539Z,1.90
2023-11-30T14:47:10.170Z,1.90
2023-11-30T14:49:38.388Z,1.90
2023-11-30T14:52:08.518Z,1.90
2023-11-30T14:54:35.457Z,1.90
2023-11-30T14:57:04.561Z,2.00
2023-11-30T14:59:31.364Z,1.90
2023-11-30T15:01:58.032Z,1.90
2023-11-30T15:04:24.725Z,1.90
2023-11-30T15:06:51.542Z,1.90
2023-11-30T15:09:18.160Z,2.00
2023-11-30T15:11:44.833Z,2.10
2023-11-30T15:14:11.572Z,1.90
2023-11-30T15:16:39.559Z,1.90
2023-11-30T15:19:06.235Z,1.80
2023-11-30T15:21:32.980Z,1.80
2023-11-30T15:23:59.606Z,1.80
2023-11-30T15:26:26.221Z,2.00
2023-11-30T15:28:56.339Z,1.90
2023-11-30T15:31:26.240Z,1.90
2023-11-30T15:33:53.130Z,1.90
2023-11-30T15:36:19.841Z,2.00
2023-11-30T15:38:46.469Z,1.90
2023-11-30T15:41:13.085Z,1.90
2023-11-30T15:43:39.718Z,2.00
2023-11-30T15:46:06.707Z,1.90
2023-11-30T15:48:33.399Z,1.90
2023-11-30T15:51:02.437Z,1.90
2023-11-30T15:53:29.158Z,1.80
2023-11-30T15:55:55.761Z,1.90
2023-11-30T15:58:22.413Z,1.90
2023-11-30T16:00:49.134Z,1.80
2023-11-30T16:03:15.825Z,1.80
2023-11-30T16:05:42.504Z,1.70
2023-11-30T16:08:09.083Z,1.70
2023-11-30T16:10:35.777Z,1.70
2023-11-30T16:13:02.360Z,1.80
2023-11-30T16:15:29.093Z,2.00
2023-11-30T16:17:55.795Z,2.00
2023-11-30T16:20:22.438Z,1.90
2023-11-30T16:22:49.042Z,1.90
2023-11-30T16:25:15.705Z,1.90
2023-11-30T16:27:42.678Z,1.70
2023-11-30T16:30:09.742Z,1.80
2023-11-30T16:32:36.459Z,1.70
2023-11-30T16:35:03.232Z,1.70
2023-11-30T16:37:29.895Z,1.70
2023-11-30T16:39:56.570Z,1.70
2023-11-30T16:42:23.275Z,1.80
2023-11-30T16:44:50.014Z,1.80
2023-11-30T16:47:16.706Z,1.80
2023-11-30T16:49:43.337Z,1.70
2023-11-30T16:52:09.982Z,1.70
2023-11-30T16:54:36.731Z,1.70
2023-11-30T16:57:03.559Z,1.80
2023-11-30T16:59:30.157Z,1.80
2023-11-30T17:01:56.900Z,1.80
2023-11-30T17:04:23.842Z,1.80
2023-11-30T17:06:50.616Z,1.80
2023-11-30T17:09:17.425Z,1.80
2023-11-30T17:11:44.151Z,1.80
2023-11-30T17:14:10.810Z,1.80
2023-11-30T17:16:37.449Z,1.90
2023-11-30T17:19:04.149Z,1.80
2023-11-30T17:21:30.796Z,1.80
2023-11-30T17:23:57.409Z,1.80
2023-11-30T17:26:24.073Z,1.80
2023-11-30T17:28:50.754Z,1.80
2023-11-30T17:31:17.363Z,1.70
2023-11-30T17:33:44.186Z,1.80
2023-11-30T17:36:11.498Z,1.80
2023-11-30T17:38:38.150Z,1.80
2023-11-30T17:41:04.868Z,1.70
2023-11-30T17:43:31.530Z,1.80
2023-11-30T17:45:58.265Z,1.70
2023-11-30T17:48:24.983Z,1.70
2023-11-30T17:50:51.910Z,1.70
2023-11-30T17:53:18.545Z,1.70
2023-11-30T17:55:45.163Z,1.70
2023-11-30T17:58:11.769Z,1.70
2023-11-30T18:00:38.421Z,1.70
2023-11-30T18:03:06.382Z,1.80
2023-11-30T18:05:32.979Z,1.80
2023-11-30T18:07:59.589Z,1.80
2023-11-30T18:10:26.231Z,1.80
2023-11-30T18:12:52.937Z,1.80
2023-11-30T18:15:19.652Z,1.80
2023-11-30T18:17:46.359Z,1.80
2023-11-30T18:20:12.997Z,1.80
2023-11-30T18:22:39.627Z,1.80
2023-11-30T18:25:06.586Z,1.70
2023-11-30T18:27:33.220Z,1.80
2023-11-30T18:29:59.855Z,1.80
2023-11-30T18:32:26.558Z,1.90
2023-11-30T18:34:53.293Z,1.80
2023-11-30T18:37:19.936Z,1.80
2023-11-30T18:39:46.573Z,1.70
2023-11-30T18:42:13.245Z,1.80
2023-11-30T18:44:40.197Z,1.80
2023-11-30T18:47:06.833Z,1.80
2023-11-30T18:49:33.462Z,1.90
2023-11-30T18:52:00.379Z,1.90
2023-11-30T18:54:27.123Z,1.80
2023-11-30T18:56:53.758Z,1.80
2023-11-30T18:59:20.362Z,1.80
2023-11-30T19:01:47.826Z,1.80
2023-11-30T19:04:14.912Z,1.80
2023-11-30T19:06:41.520Z,1.70
2023-11-30T19:09:08.693Z,1.70
2023-11-30T19:11:35.376Z,1.80
2023-11-30T19:14:02.034Z,1.70
2023-11-30T19:16:28.648Z,1.70
2023-11-30T19:18:55.313Z,1.70
2023-11-30T19:21:22.056Z,1.70
2023-11-30T19:23:48.721Z,1.70
2023-11-30T19:26:15.428Z,1.70
2023-11-30T19:28:42.003Z,1.70
2023-11-30T19:31:08.800Z,1.70
2023-11-30T19:33:35.560Z,1.70
2023-11-30T19:36:02.322Z,1.70
2023-11-30T19:38:29.000Z,1.70
2023-11-30T19:40:56.843Z,1.70
2023-11-30T19:43:27.110Z,1.70
2023-11-30T19:45:54.343Z,1.60
2023-11-30T19:48:21.317Z,1.60
2023-11-30T19:50:48.062Z,1.70
2023-11-30T19:53:14.714Z,1.60
2023-11-30T19:55:41.392Z,1.70
2023-11-30T19:58:08.069Z,1.80
2023-11-30T20:00:34.888Z,1.80
2023-11-30T20:03:01.628Z,1.80
2023-11-30T20:05:28.292Z,1.80
2023-11-30T20:07:54.962Z,1.80
2023-11-30T20:10:21.605Z,1.80
2023-11-30T20:12:48.358Z,1.80
2023-11-30T20:15:18.225Z,1.80
2023-11-30T20:17:44.874Z,1.80
2023-11-30T20:20:11.836Z,1.80
2023-11-30T20:22:38.510Z,1.80
2023-11-30T20:25:05.580Z,1.80
2023-11-30T20:27:32.321Z,1.80
2023-11-30T20:29:59.013Z,1.80
2023-11-30T20:32:25.960Z,1.80
2023-11-30T20:34:53.059Z,1.80
2023-11-30T20:37:19.728Z,1.80
2023-11-30T20:39:47.125Z,1.80
2023-11-30T20:42:13.836Z,1.80
2023-11-30T20:44:40.697Z,1.80
2023-11-30T20:47:07.509Z,1.80
2023-11-30T20:49:34.185Z,1.80
2023-11-30T20:52:00.917Z,1.80
2023-11-30T20:54:27.789Z,1.80
2023-11-30T20:56:54.468Z,1.80
2023-11-30T20:59:21.098Z,1.80
2023-11-30T21:01:47.985Z,1.80
2023-11-30T21:04:14.754Z,1.80
2023-11-30T21:06:41.465Z,1.80
2023-11-30T21:09:08.193Z,1.80
2023-11-30T21:11:38.353Z,1.80
2023-11-30T21:14:05.089Z,1.80
2023-11-30T21:16:31.717Z,1.90
2023-11-30T21:18:58.414Z,1.80
2023-11-30T21:21:25.108Z,1.90
2023-11-30T21:23:51.765Z,1.80
2023-11-30T21:26:18.429Z,1.80
2023-11-30T21:28:45.040Z,1.80
2023-11-30T21:31:12.042Z,1.90
2023-11-30T21:33:38.831Z,1.90
2023-11-30T21:36:05.846Z,1.80
2023-11-30T21:38:32.511Z,1.80
2023-11-30T21:40:59.556Z,1.80
2023-11-30T21:43:26.649Z,1.80
2023-11-30T21:45:53.301Z,1.80
2023-11-30T21:48:20.018Z,1.80
2023-11-30T21:50:46.660Z,1.80
2023-11-30T21:53:13.521Z,1.70
2023-11-30T21:55:40.196Z,1.80
2023-11-30T21:58:06.941Z,1.80
2023-11-30T22:00:33.716Z,1.70
2023-11-30T22:03:01.404Z,1.70
2023-11-30T22:05:35.841Z,1.70
2023-11-30T22:08:03.758Z,1.70
2023-11-30T22:10:30.592Z,1.70
2023-11-30T22:12:57.284Z,1.80
2023-11-30T22:15:23.929Z,1.70
2023-11-30T22:17:50.822Z,1.70
2023-11-30T22:20:17.542Z,1.80
2023-11-30T22:22:44.327Z,1.70
2023-11-30T22:25:10.996Z,1.70
2023-11-30T22:27:37.617Z,1.80
2023-11-30T22:30:04.752Z,1.80
2023-11-30T22:32:31.447Z,1.80
2023-11-30T22:34:58.109Z,1.80
2023-11-30T22:37:25.090Z,1.80
2023-11-30T22:39:51.830Z,1.90
2023-11-30T22:42:18.519Z,1.80
2023-11-30T22:44:45.118Z,1.80
2023-11-30T22:47:11.727Z,1.80
2023-11-30T22:49:38.382Z,1.80
2023-11-30T22:52:05.072Z,1.80
2023-11-30T22:54:31.867Z,1.80
2023-11-30T22:56:58.620Z,1.70
2023-11-30T22:59:25.315Z,1.80
2023-11-30T23:01:52.061Z,1.70
2023-11-30T23:04:19.052Z,1.80
2023-11-30T23:06:46.009Z,1.80
2023-11-30T23:09:12.650Z,1.80
2023-11-30T23:11:39.252Z,1.80
2023-11-30T23:14:05.862Z,1.80
2023-11-30T23:16:32.616Z,1.80
2023-11-30T23:18:59.246Z,1.80
2023-11-30T23:21:25.878Z,1.80
2023-11-30T23:23:52.676Z,1.80
2023-11-30T23:26:19.294Z,1.80
2023-11-30T23:28:45.947Z,1.80
2023-11-30T23:31:12.810Z,1.80
2023-11-30T23:33:39.451Z,1.80
2023-11-30T23:36:06.614Z,1.80
2023-11-30T23:38:33.310Z,1.80
2023-11-30T23:40:59.926Z,1.80
2023-11-30T23:43:26.538Z,1.80
2023-11-30T23:45:53.186Z,1.80
2023-11-30T23:48:19.776Z,1.80
2023-11-30T23:50:46.374Z,1.70
2023-11-30T23:53:13.036Z,1.70
2023-11-30T23:55:39.692Z,1.80
2023-11-30T23:58:06.412Z,1.70
